sensor_id;sensor_type;location;lat;lon;timestamp;temperature;humidity
45137;DHT22;30894;51.740;19.498;2022-09-28T00:00:16;10.50;99.90
45137;DHT22;30894;51.740;19.498;2022-09-28T00:03:02;10.40;99.90
45137;DHT22;30894;51.740;19.498;2022-09-28T00:05:28;10.30;99.90
45137;DHT22;30894;51.740;19.498;2022-09-28T00:07:55;10.30;99.90
45137;DHT22;30894;51.740;19.498;2022-09-28T00:10:22;10.30;99.90
45137;DHT22;30894;51.740;19.498;2022-09-28T00:12:49;10.20;99.90
45137;DHT22;30894;51.740;19.498;2022-09-28T00:15:16;10.20;99.90
45137;DHT22;30894;51.740;19.498;2022-09-28T00:17:42;10.10;99.90
45137;DHT22;30894;51.740;19.498;2022-09-28T00:20:12;10.20;99.90
45137;DHT22;30894;51.740;19.498;2022-09-28T00:22:38;10.10;99.90
45137;DHT22;30894;51.740;19.498;2022-09-28T00:25:05;10.10;99.90
45137;DHT22;30894;51.740;19.498;2022-09-28T00:27:32;10.10;99.90
45137;DHT22;30894;51.740;19.498;2022-09-28T00:29:58;10.10;99.90
45137;DHT22;30894;51.740;19.498;2022-09-28T00:32:25;10.00;99.90
45137;DHT22;30894;51.740;19.498;2022-09-28T00:34:54;10.00;99.90
45137;DHT22;30894;51.740;19.498;2022-09-28T00:37:21;10.00;99.90
45137;DHT22;30894;51.740;19.498;2022-09-28T00:39:48;10.00;99.90
45137;DHT22;30894;51.740;19.498;2022-09-28T00:42:22;10.00;99.90
45137;DHT22;30894;51.740;19.498;2022-09-28T00:47:40;10.00;99.90
45137;DHT22;30894;51.740;19.498;2022-09-28T00:53:11;10.00;99.90
45137;DHT22;30894;51.740;19.498;2022-09-28T00:55:53;10.10;99.90
45137;DHT22;30894;51.740;19.498;2022-09-28T00:58:28;10.00;99.90
45137;DHT22;30894;51.740;19.498;2022-09-28T01:00:57;10.00;99.90
45137;DHT22;30894;51.740;19.498;2022-09-28T01:03:27;10.00;99.90
45137;DHT22;30894;51.740;19.498;2022-09-28T01:05:57;10.00;99.90
45137;DHT22;30894;51.740;19.498;2022-09-28T01:08:26;10.00;99.90
45137;DHT22;30894;51.740;19.498;2022-09-28T01:10:53;9.90;99.90
45137;DHT22;30894;51.740;19.498;2022-09-28T01:13:20;9.90;99.90
45137;DHT22;30894;51.740;19.498;2022-09-28T01:18:34;9.80;99.90
45137;DHT22;30894;51.740;19.498;2022-09-28T01:21:22;9.80;99.90
45137;DHT22;30894;51.740;19.498;2022-09-28T01:24:07;9.80;99.90
45137;DHT22;30894;51.740;19.498;2022-09-28T01:27:06;9.70;99.90
45137;DHT22;30894;51.740;19.498;2022-09-28T01:29:52;9.60;99.90
45137;DHT22;30894;51.740;19.498;2022-09-28T01:35:10;9.60;99.90
45137;DHT22;30894;51.740;19.498;2022-09-28T01:37:51;9.50;99.90
45137;DHT22;30894;51.740;19.498;2022-09-28T01:40:23;9.50;99.90
45137;DHT22;30894;51.740;19.498;2022-09-28T01:42:55;9.50;99.90
45137;DHT22;30894;51.740;19.498;2022-09-28T01:45:28;9.40;99.90
45137;DHT22;30894;51.740;19.498;2022-09-28T01:48:02;9.30;99.90
45137;DHT22;30894;51.740;19.498;2022-09-28T01:50:35;9.30;99.90
45137;DHT22;30894;51.740;19.498;2022-09-28T01:53:23;9.20;99.90
45137;DHT22;30894;51.740;19.498;2022-09-28T01:55:56;9.20;99.90
45137;DHT22;30894;51.740;19.498;2022-09-28T01:58:35;9.10;99.90
45137;DHT22;30894;51.740;19.498;2022-09-28T02:01:08;9.10;99.90
45137;DHT22;30894;51.740;19.498;2022-09-28T02:03:48;9.00;99.90
45137;DHT22;30894;51.740;19.498;2022-09-28T02:06:25;9.00;99.90
45137;DHT22;30894;51.740;19.498;2022-09-28T02:09:07;8.90;99.90
45137;DHT22;30894;51.740;19.498;2022-09-28T02:11:38;8.90;99.90
45137;DHT22;30894;51.740;19.498;2022-09-28T02:14:10;8.90;99.90
45137;DHT22;30894;51.740;19.498;2022-09-28T02:16:40;8.80;99.90
45137;DHT22;30894;51.740;19.498;2022-09-28T02:19:14;8.80;99.90
45137;DHT22;30894;51.740;19.498;2022-09-28T02:27:44;8.60;99.90
45137;DHT22;30894;51.740;19.498;2022-09-28T02:30:17;8.50;99.90
45137;DHT22;30894;51.740;19.498;2022-09-28T02:32:46;8.40;99.90
45137;DHT22;30894;51.740;19.498;2022-09-28T02:35:16;8.30;99.90
45137;DHT22;30894;51.740;19.498;2022-09-28T02:37:45;8.20;99.90
45137;DHT22;30894;51.740;19.498;2022-09-28T02:40:30;8.10;99.90
45137;DHT22;30894;51.740;19.498;2022-09-28T02:43:15;8.10;99.90
45137;DHT22;30894;51.740;19.498;2022-09-28T02:46:20;8.00;99.90
45137;DHT22;30894;51.740;19.498;2022-09-28T02:55:10;8.00;99.90
45137;DHT22;30894;51.740;19.498;2022-09-28T03:04:09;7.90;99.90
45137;DHT22;30894;51.740;19.498;2022-09-28T03:07:04;7.90;99.90
45137;DHT22;30894;51.740;19.498;2022-09-28T03:12:28;7.80;99.90
45137;DHT22;30894;51.740;19.498;2022-09-28T03:17:52;7.70;99.90
45137;DHT22;30894;51.740;19.498;2022-09-28T03:20:18;7.70;99.90
45137;DHT22;30894;51.740;19.498;2022-09-28T03:22:44;7.70;99.90
45137;DHT22;30894;51.740;19.498;2022-09-28T03:25:11;7.70;99.90
45137;DHT22;30894;51.740;19.498;2022-09-28T03:27:37;7.70;99.90
45137;DHT22;30894;51.740;19.498;2022-09-28T03:30:04;7.70;99.90
45137;DHT22;30894;51.740;19.498;2022-09-28T03:32:30;7.60;99.90
45137;DHT22;30894;51.740;19.498;2022-09-28T03:34:56;7.60;99.90
45137;DHT22;30894;51.740;19.498;2022-09-28T03:37:22;7.60;99.90
45137;DHT22;30894;51.740;19.498;2022-09-28T03:39:49;7.60;99.90
45137;DHT22;30894;51.740;19.498;2022-09-28T03:42:15;7.50;99.90
45137;DHT22;30894;51.740;19.498;2022-09-28T03:44:40;7.40;99.90
45137;DHT22;30894;51.740;19.498;2022-09-28T03:47:07;7.40;99.90
45137;DHT22;30894;51.740;19.498;2022-09-28T03:49:34;7.30;99.90
45137;DHT22;30894;51.740;19.498;2022-09-28T03:52:00;7.30;99.90
45137;DHT22;30894;51.740;19.498;2022-09-28T03:54:26;7.20;99.90
45137;DHT22;30894;51.740;19.498;2022-09-28T03:56:52;7.20;99.90
45137;DHT22;30894;51.740;19.498;2022-09-28T03:59:19;7.20;99.90
45137;DHT22;30894;51.740;19.498;2022-09-28T04:01:51;7.10;99.90
45137;DHT22;30894;51.740;19.498;2022-09-28T04:04:17;7.10;99.90
45137;DHT22;30894;51.740;19.498;2022-09-28T04:06:43;7.00;99.90
45137;DHT22;30894;51.740;19.498;2022-09-28T04:09:10;6.90;99.90
45137;DHT22;30894;51.740;19.498;2022-09-28T04:11:36;6.70;99.90
45137;DHT22;30894;51.740;19.498;2022-09-28T04:14:02;6.60;99.90
45137;DHT22;30894;51.740;19.498;2022-09-28T04:16:28;6.40;99.90
45137;DHT22;30894;51.740;19.498;2022-09-28T04:18:54;6.30;99.90
45137;DHT22;30894;51.740;19.498;2022-09-28T04:21:20;6.30;99.90
45137;DHT22;30894;51.740;19.498;2022-09-28T04:23:47;6.20;99.90
45137;DHT22;30894;51.740;19.498;2022-09-28T04:26:18;6.20;99.90
45137;DHT22;30894;51.740;19.498;2022-09-28T04:28:46;6.10;99.90
45137;DHT22;30894;51.740;19.498;2022-09-28T04:31:40;6.10;99.90
45137;DHT22;30894;51.740;19.498;2022-09-28T04:34:11;6.10;99.90
45137;DHT22;30894;51.740;19.498;2022-09-28T04:36:40;6.00;99.90
45137;DHT22;30894;51.740;19.498;2022-09-28T04:39:05;5.90;99.90
45137;DHT22;30894;51.740;19.498;2022-09-28T04:44:27;5.80;99.90
45137;DHT22;30894;51.740;19.498;2022-09-28T04:47:11;5.90;99.90
45137;DHT22;30894;51.740;19.498;2022-09-28T04:49:40;5.90;99.90
45137;DHT22;30894;51.740;19.498;2022-09-28T04:52:35;5.90;99.90
45137;DHT22;30894;51.740;19.498;2022-09-28T04:55:21;5.80;99.90
45137;DHT22;30894;51.740;19.498;2022-09-28T04:58:40;5.90;99.90
45137;DHT22;30894;51.740;19.498;2022-09-28T05:05:23;5.90;99.90
45137;DHT22;30894;51.740;19.498;2022-09-28T05:07:58;6.00;99.90
45137;DHT22;30894;51.740;19.498;2022-09-28T05:10:59;6.20;99.90
45137;DHT22;30894;51.740;19.498;2022-09-28T05:14:23;6.50;99.90
45137;DHT22;30894;51.740;19.498;2022-09-28T05:17:14;6.70;99.90
45137;DHT22;30894;51.740;19.498;2022-09-28T05:19:40;6.90;99.90
45137;DHT22;30894;51.740;19.498;2022-09-28T05:22:11;7.20;99.90
45137;DHT22;30894;51.740;19.498;2022-09-28T05:24:40;7.40;99.90
45137;DHT22;30894;51.740;19.498;2022-09-28T05:27:06;7.50;99.90
45137;DHT22;30894;51.740;19.498;2022-09-28T05:29:33;7.70;99.90
45137;DHT22;30894;51.740;19.498;2022-09-28T05:31:59;7.90;99.90
45137;DHT22;30894;51.740;19.498;2022-09-28T05:34:29;7.90;99.90
45137;DHT22;30894;51.740;19.498;2022-09-28T05:37:00;8.00;99.90
45137;DHT22;30894;51.740;19.498;2022-09-28T05:39:26;8.10;99.90
45137;DHT22;30894;51.740;19.498;2022-09-28T05:41:53;8.40;99.90
45137;DHT22;30894;51.740;19.498;2022-09-28T05:44:19;8.70;99.90
45137;DHT22;30894;51.740;19.498;2022-09-28T05:46:45;8.80;99.90
45137;DHT22;30894;51.740;19.498;2022-09-28T05:49:11;8.80;99.90
45137;DHT22;30894;51.740;19.498;2022-09-28T05:51:38;8.60;99.90
45137;DHT22;30894;51.740;19.498;2022-09-28T05:54:07;8.50;99.90
45137;DHT22;30894;51.740;19.498;2022-09-28T05:56:33;8.40;99.90
45137;DHT22;30894;51.740;19.498;2022-09-28T05:58:59;8.50;99.90
45137;DHT22;30894;51.740;19.498;2022-09-28T06:01:26;8.80;99.90
45137;DHT22;30894;51.740;19.498;2022-09-28T06:03:54;9.30;99.90
45137;DHT22;30894;51.740;19.498;2022-09-28T06:06:20;9.70;99.90
45137;DHT22;30894;51.740;19.498;2022-09-28T06:08:46;10.10;99.90
45137;DHT22;30894;51.740;19.498;2022-09-28T06:11:13;10.20;99.90
45137;DHT22;30894;51.740;19.498;2022-09-28T06:13:39;10.20;99.90
45137;DHT22;30894;51.740;19.498;2022-09-28T06:16:06;10.10;99.90
45137;DHT22;30894;51.740;19.498;2022-09-28T06:18:32;10.00;99.90
45137;DHT22;30894;51.740;19.498;2022-09-28T06:20:59;9.90;99.90
45137;DHT22;30894;51.740;19.498;2022-09-28T06:23:25;9.70;99.90
45137;DHT22;30894;51.740;19.498;2022-09-28T06:25:51;9.50;99.90
45137;DHT22;30894;51.740;19.498;2022-09-28T06:28:17;9.40;99.90
45137;DHT22;30894;51.740;19.498;2022-09-28T06:30:43;9.50;99.90
45137;DHT22;30894;51.740;19.498;2022-09-28T06:35:46;10.20;99.90
45137;DHT22;30894;51.740;19.498;2022-09-28T06:38:34;10.70;99.90
45137;DHT22;30894;51.740;19.498;2022-09-28T06:41:04;11.40;99.90
45137;DHT22;30894;51.740;19.498;2022-09-28T06:43:30;12.00;99.90
45137;DHT22;30894;51.740;19.498;2022-09-28T06:46:13;12.50;99.90
45137;DHT22;30894;51.740;19.498;2022-09-28T06:48:40;12.90;99.90
45137;DHT22;30894;51.740;19.498;2022-09-28T06:51:08;12.90;99.90
45137;DHT22;30894;51.740;19.498;2022-09-28T06:53:36;13.00;99.90
45137;DHT22;30894;51.740;19.498;2022-09-28T06:56:03;13.10;99.90
45137;DHT22;30894;51.740;19.498;2022-09-28T06:58:31;13.30;99.90
45137;DHT22;30894;51.740;19.498;2022-09-28T07:00:59;13.20;99.90
45137;DHT22;30894;51.740;19.498;2022-09-28T07:03:26;13.10;99.90
45137;DHT22;30894;51.740;19.498;2022-09-28T07:05:53;13.10;99.90
45137;DHT22;30894;51.740;19.498;2022-09-28T07:08:24;13.00;99.90
45137;DHT22;30894;51.740;19.498;2022-09-28T07:10:52;13.00;99.90
45137;DHT22;30894;51.740;19.498;2022-09-28T07:13:23;13.00;99.90
45137;DHT22;30894;51.740;19.498;2022-09-28T07:15:56;13.10;99.90
45137;DHT22;30894;51.740;19.498;2022-09-28T07:18:26;13.10;99.90
45137;DHT22;30894;51.740;19.498;2022-09-28T07:20:55;13.50;99.90
45137;DHT22;30894;51.740;19.498;2022-09-28T07:23:24;13.70;99.90
45137;DHT22;30894;51.740;19.498;2022-09-28T07:26:05;13.90;99.90
45137;DHT22;30894;51.740;19.498;2022-09-28T07:28:31;14.10;99.90
45137;DHT22;30894;51.740;19.498;2022-09-28T07:31:00;14.30;99.90
45137;DHT22;30894;51.740;19.498;2022-09-28T07:33:29;14.40;99.90
45137;DHT22;30894;51.740;19.498;2022-09-28T07:35:57;14.30;99.90
45137;DHT22;30894;51.740;19.498;2022-09-28T07:38:27;14.10;99.90
45137;DHT22;30894;51.740;19.498;2022-09-28T07:40:55;14.30;99.90
45137;DHT22;30894;51.740;19.498;2022-09-28T07:43:42;14.70;99.90
45137;DHT22;30894;51.740;19.498;2022-09-28T07:46:08;14.70;99.90
45137;DHT22;30894;51.740;19.498;2022-09-28T07:48:43;14.40;99.90
45137;DHT22;30894;51.740;19.498;2022-09-28T07:51:32;14.40;99.90
45137;DHT22;30894;51.740;19.498;2022-09-28T07:54:35;14.60;99.90
45137;DHT22;30894;51.740;19.498;2022-09-28T07:57:04;15.00;99.90
45137;DHT22;30894;51.740;19.498;2022-09-28T07:59:33;15.20;99.90
45137;DHT22;30894;51.740;19.498;2022-09-28T08:01:59;15.50;99.90
45137;DHT22;30894;51.740;19.498;2022-09-28T08:04:26;15.80;99.90
45137;DHT22;30894;51.740;19.498;2022-09-28T08:06:52;16.10;99.90
45137;DHT22;30894;51.740;19.498;2022-09-28T08:09:18;16.00;99.90
45137;DHT22;30894;51.740;19.498;2022-09-28T08:11:45;15.70;99.90
45137;DHT22;30894;51.740;19.498;2022-09-28T08:14:11;15.90;99.90
45137;DHT22;30894;51.740;19.498;2022-09-28T08:16:37;16.20;99.90
45137;DHT22;30894;51.740;19.498;2022-09-28T08:19:03;16.40;99.90
45137;DHT22;30894;51.740;19.498;2022-09-28T08:21:29;16.70;99.90
45137;DHT22;30894;51.740;19.498;2022-09-28T08:24:15;17.10;99.90
45137;DHT22;30894;51.740;19.498;2022-09-28T08:26:47;17.50;99.90
45137;DHT22;30894;51.740;19.498;2022-09-28T08:29:14;17.30;99.90
45137;DHT22;30894;51.740;19.498;2022-09-28T08:31:41;16.80;99.90
45137;DHT22;30894;51.740;19.498;2022-09-28T08:34:07;16.40;99.90
45137;DHT22;30894;51.740;19.498;2022-09-28T08:36:33;16.20;99.90
45137;DHT22;30894;51.740;19.498;2022-09-28T08:38:59;16.10;99.90
45137;DHT22;30894;51.740;19.498;2022-09-28T08:44:37;16.20;99.90
45137;DHT22;30894;51.740;19.498;2022-09-28T08:47:12;15.90;99.90
45137;DHT22;30894;51.740;19.498;2022-09-28T08:50:06;15.60;99.90
45137;DHT22;30894;51.740;19.498;2022-09-28T08:52:39;15.30;99.90
45137;DHT22;30894;51.740;19.498;2022-09-28T08:58:16;15.00;99.90
45137;DHT22;30894;51.740;19.498;2022-09-28T09:00:49;15.40;99.90
45137;DHT22;30894;51.740;19.498;2022-09-28T09:03:36;16.50;99.90
45137;DHT22;30894;51.740;19.498;2022-09-28T09:11:45;18.70;99.90
45137;DHT22;30894;51.740;19.498;2022-09-28T09:14:53;18.90;99.90
45137;DHT22;30894;51.740;19.498;2022-09-28T09:18:00;19.50;99.90
45137;DHT22;30894;51.740;19.498;2022-09-28T09:20:36;19.00;99.90
45137;DHT22;30894;51.740;19.498;2022-09-28T09:23:36;18.40;99.90
45137;DHT22;30894;51.740;19.498;2022-09-28T09:26:15;17.90;99.90
45137;DHT22;30894;51.740;19.498;2022-09-28T09:28:56;17.80;99.90
45137;DHT22;30894;51.740;19.498;2022-09-28T09:47:34;21.60;96.00
45137;DHT22;30894;51.740;19.498;2022-09-28T09:50:33;21.50;95.10
45137;DHT22;30894;51.740;19.498;2022-09-28T09:53:05;21.90;94.20
45137;DHT22;30894;51.740;19.498;2022-09-28T09:55:48;22.40;92.10
45137;DHT22;30894;51.740;19.498;2022-09-28T09:58:27;22.40;91.00
45137;DHT22;30894;51.740;19.498;2022-09-28T10:01:05;22.40;91.00
45137;DHT22;30894;51.740;19.498;2022-09-28T10:03:34;23.10;90.00
45137;DHT22;30894;51.740;19.498;2022-09-28T10:06:07;23.00;88.00
45137;DHT22;30894;51.740;19.498;2022-09-28T10:08:51;22.20;87.80
45137;DHT22;30894;51.740;19.498;2022-09-28T10:11:35;21.30;88.10
45137;DHT22;30894;51.740;19.498;2022-09-28T10:14:17;20.60;90.40
45137;DHT22;30894;51.740;19.498;2022-09-28T10:16:48;19.90;92.30
45137;DHT22;30894;51.740;19.498;2022-09-28T10:19:17;19.50;95.20
45137;DHT22;30894;51.740;19.498;2022-09-28T10:21:49;19.20;97.10
45137;DHT22;30894;51.740;19.498;2022-09-28T10:26:55;19.10;99.70
45137;DHT22;30894;51.740;19.498;2022-09-28T10:29:28;19.20;99.70
45137;DHT22;30894;51.740;19.498;2022-09-28T10:32:00;19.60;99.20
45137;DHT22;30894;51.740;19.498;2022-09-28T10:34:30;20.00;98.20
45137;DHT22;30894;51.740;19.498;2022-09-28T10:36:58;20.50;96.50
45137;DHT22;30894;51.740;19.498;2022-09-28T10:39:31;21.10;95.00
45137;DHT22;30894;51.740;19.498;2022-09-28T10:42:08;21.30;93.30
45137;DHT22;30894;51.740;19.498;2022-09-28T10:45:00;21.20;93.10
45137;DHT22;30894;51.740;19.498;2022-09-28T10:47:30;21.40;92.50
45137;DHT22;30894;51.740;19.498;2022-09-28T10:49:58;22.50;91.60
45137;DHT22;30894;51.740;19.498;2022-09-28T10:55:25;24.90;81.10
45137;DHT22;30894;51.740;19.498;2022-09-28T10:57:50;24.30;80.10
45137;DHT22;30894;51.740;19.498;2022-09-28T11:00:40;23.40;81.40
45137;DHT22;30894;51.740;19.498;2022-09-28T11:03:20;22.60;83.40
45137;DHT22;30894;51.740;19.498;2022-09-28T11:06:02;21.70;85.30
45137;DHT22;30894;51.740;19.498;2022-09-28T11:08:35;21.10;87.40
45137;DHT22;30894;51.740;19.498;2022-09-28T11:11:12;20.60;89.60
45137;DHT22;30894;51.740;19.498;2022-09-28T11:13:49;21.00;90.80
45137;DHT22;30894;51.740;19.498;2022-09-28T11:19:04;21.50;88.50
45137;DHT22;30894;51.740;19.498;2022-09-28T11:21:51;21.10;89.10
45137;DHT22;30894;51.740;19.498;2022-09-28T11:24:20;20.70;90.20
45137;DHT22;30894;51.740;19.498;2022-09-28T11:26:51;20.80;90.70
45137;DHT22;30894;51.740;19.498;2022-09-28T11:29:43;21.00;90.30
45137;DHT22;30894;51.740;19.498;2022-09-28T11:32:19;22.10;87.60
45137;DHT22;30894;51.740;19.498;2022-09-28T11:34:48;21.90;85.60
45137;DHT22;30894;51.740;19.498;2022-09-28T11:37:24;21.30;86.50
45137;DHT22;30894;51.740;19.498;2022-09-28T11:40:50;21.30;87.20
45137;DHT22;30894;51.740;19.498;2022-09-28T11:46:46;21.10;87.80
45137;DHT22;30894;51.740;19.498;2022-09-28T11:49:38;21.70;87.40
45137;DHT22;30894;51.740;19.498;2022-09-28T11:52:26;23.00;84.00
45137;DHT22;30894;51.740;19.498;2022-09-28T11:55:02;23.90;79.30
45137;DHT22;30894;51.740;19.498;2022-09-28T11:57:46;24.30;78.00
45137;DHT22;30894;51.740;19.498;2022-09-28T12:00:19;24.50;76.00
45137;DHT22;30894;51.740;19.498;2022-09-28T12:02:56;23.70;76.60
45137;DHT22;30894;51.740;19.498;2022-09-28T12:05:38;23.30;77.80
45137;DHT22;30894;51.740;19.498;2022-09-28T12:08:22;23.50;77.70
45137;DHT22;30894;51.740;19.498;2022-09-28T12:13:38;24.30;75.60
45137;DHT22;30894;51.740;19.498;2022-09-28T12:16:16;24.30;75.20
45137;DHT22;30894;51.740;19.498;2022-09-28T12:18:53;23.40;76.10
45137;DHT22;30894;51.740;19.498;2022-09-28T12:21:40;22.50;77.60
45137;DHT22;30894;51.740;19.498;2022-09-28T12:27:16;21.10;81.30
45137;DHT22;30894;51.740;19.498;2022-09-28T12:35:18;20.40;83.50
45137;DHT22;30894;51.740;19.498;2022-09-28T12:47:00;18.70;88.00
45137;DHT22;30894;51.740;19.498;2022-09-28T12:52:39;18.30;90.00
45137;DHT22;30894;51.740;19.498;2022-09-28T12:58:37;18.50;90.10
45137;DHT22;30894;51.740;19.498;2022-09-28T13:10:22;18.30;90.10
45137;DHT22;30894;51.740;19.498;2022-09-28T13:24:55;17.60;91.10
45137;DHT22;30894;51.740;19.498;2022-09-28T13:27:39;17.40;91.30
45137;DHT22;30894;51.740;19.498;2022-09-28T13:30:06;17.30;91.50
45137;DHT22;30894;51.740;19.498;2022-09-28T13:32:37;17.10;91.90
45137;DHT22;30894;51.740;19.498;2022-09-28T13:35:05;17.00;92.20
45137;DHT22;30894;51.740;19.498;2022-09-28T13:37:32;16.70;92.30
45137;DHT22;30894;51.740;19.498;2022-09-28T13:40:00;16.50;92.70
45137;DHT22;30894;51.740;19.498;2022-09-28T13:48:16;16.10;94.00
45137;DHT22;30894;51.740;19.498;2022-09-28T13:51:23;16.00;94.30
45137;DHT22;30894;51.740;19.498;2022-09-28T13:54:27;15.70;94.80
45137;DHT22;30894;51.740;19.498;2022-09-28T13:57:28;15.40;95.80
45137;DHT22;30894;51.740;19.498;2022-09-28T14:00:21;15.00;97.10
45137;DHT22;30894;51.740;19.498;2022-09-28T14:03:10;14.80;98.00
45137;DHT22;30894;51.740;19.498;2022-09-28T14:14:11;14.00;99.90
45137;DHT22;30894;51.740;19.498;2022-09-28T14:20:06;13.60;99.90
45137;DHT22;30894;51.740;19.498;2022-09-28T14:25:44;13.30;99.90
45137;DHT22;30894;51.740;19.498;2022-09-28T14:31:26;13.10;99.90
45137;DHT22;30894;51.740;19.498;2022-09-28T14:33:58;13.00;99.90
45137;DHT22;30894;51.740;19.498;2022-09-28T14:36:40;13.00;99.90
45137;DHT22;30894;51.740;19.498;2022-09-28T14:39:29;13.00;99.90
45137;DHT22;30894;51.740;19.498;2022-09-28T14:42:22;12.90;99.90
45137;DHT22;30894;51.740;19.498;2022-09-28T14:50:35;12.60;99.90
45137;DHT22;30894;51.740;19.498;2022-09-28T14:53:11;12.50;99.90
45137;DHT22;30894;51.740;19.498;2022-09-28T14:55:50;12.40;99.90
45137;DHT22;30894;51.740;19.498;2022-09-28T14:58:23;12.40;99.90
45137;DHT22;30894;51.740;19.498;2022-09-28T15:01:01;12.30;99.90
45137;DHT22;30894;51.740;19.498;2022-09-28T15:03:32;12.30;99.90
45137;DHT22;30894;51.740;19.498;2022-09-28T15:05:59;12.30;99.90
45137;DHT22;30894;51.740;19.498;2022-09-28T15:08:36;12.30;99.90
45137;DHT22;30894;51.740;19.498;2022-09-28T15:11:03;12.20;99.90
45137;DHT22;30894;51.740;19.498;2022-09-28T15:13:30;12.20;99.90
45137;DHT22;30894;51.740;19.498;2022-09-28T15:16:08;12.20;99.90
45137;DHT22;30894;51.740;19.498;2022-09-28T15:21:22;12.20;99.90
45137;DHT22;30894;51.740;19.498;2022-09-28T15:23:49;12.20;99.90
45137;DHT22;30894;51.740;19.498;2022-09-28T15:26:22;12.20;99.90
45137;DHT22;30894;51.740;19.498;2022-09-28T15:28:56;12.10;99.90
45137;DHT22;30894;51.740;19.498;2022-09-28T15:31:25;12.00;99.90
45137;DHT22;30894;51.740;19.498;2022-09-28T15:33:52;11.90;99.90
45137;DHT22;30894;51.740;19.498;2022-09-28T15:36:39;11.80;99.90
45137;DHT22;30894;51.740;19.498;2022-09-28T15:39:29;11.70;99.90
45137;DHT22;30894;51.740;19.498;2022-09-28T15:41:59;11.70;99.90
45137;DHT22;30894;51.740;19.498;2022-09-28T15:44:31;11.60;99.90
45137;DHT22;30894;51.740;19.498;2022-09-28T15:47:22;11.60;99.90
45137;DHT22;30894;51.740;19.498;2022-09-28T15:49:57;11.50;99.90
45137;DHT22;30894;51.740;19.498;2022-09-28T15:52:35;11.50;99.90
45137;DHT22;30894;51.740;19.498;2022-09-28T15:55:31;11.40;99.90
45137;DHT22;30894;51.740;19.498;2022-09-28T16:00:39;11.30;99.90
45137;DHT22;30894;51.740;19.498;2022-09-28T16:05:47;11.30;99.90
45137;DHT22;30894;51.740;19.498;2022-09-28T16:11:34;11.20;99.90
45137;DHT22;30894;51.740;19.498;2022-09-28T16:14:17;11.20;99.90
45137;DHT22;30894;51.740;19.498;2022-09-28T16:16:50;11.20;99.90
45137;DHT22;30894;51.740;19.498;2022-09-28T16:19:28;11.10;99.90
45137;DHT22;30894;51.740;19.498;2022-09-28T16:22:02;11.10;99.90
45137;DHT22;30894;51.740;19.498;2022-09-28T16:24:37;11.10;99.90
45137;DHT22;30894;51.740;19.498;2022-09-28T16:30:15;11.10;99.90
45137;DHT22;30894;51.740;19.498;2022-09-28T16:33:01;11.00;99.90
45137;DHT22;30894;51.740;19.498;2022-09-28T16:35:49;11.00;99.90
45137;DHT22;30894;51.740;19.498;2022-09-28T16:38:16;11.00;99.90
45137;DHT22;30894;51.740;19.498;2022-09-28T16:40:48;11.00;99.90
45137;DHT22;30894;51.740;19.498;2022-09-28T16:43:28;11.00;99.90
45137;DHT22;30894;51.740;19.498;2022-09-28T16:45:58;11.00;99.90
45137;DHT22;30894;51.740;19.498;2022-09-28T16:48:29;10.90;99.90
45137;DHT22;30894;51.740;19.498;2022-09-28T16:50:57;10.90;99.90
45137;DHT22;30894;51.740;19.498;2022-09-28T16:53:26;10.90;99.90
45137;DHT22;30894;51.740;19.498;2022-09-28T16:56:11;10.90;99.90
45137;DHT22;30894;51.740;19.498;2022-09-28T16:58:41;10.90;99.90
45137;DHT22;30894;51.740;19.498;2022-09-28T17:01:11;10.90;99.90
45137;DHT22;30894;51.740;19.498;2022-09-28T17:03:37;10.90;99.90
45137;DHT22;30894;51.740;19.498;2022-09-28T17:06:10;10.90;99.90
45137;DHT22;30894;51.740;19.498;2022-09-28T17:08:36;10.90;99.90
45137;DHT22;30894;51.740;19.498;2022-09-28T17:11:03;10.80;99.90
45137;DHT22;30894;51.740;19.498;2022-09-28T17:13:32;10.80;99.90
45137;DHT22;30894;51.740;19.498;2022-09-28T17:16:03;10.80;99.90
45137;DHT22;30894;51.740;19.498;2022-09-28T17:18:33;10.80;99.90
45137;DHT22;30894;51.740;19.498;2022-09-28T17:21:05;10.80;99.90
45137;DHT22;30894;51.740;19.498;2022-09-28T17:23:35;10.80;99.90
45137;DHT22;30894;51.740;19.498;2022-09-28T17:26:03;10.70;99.90
45137;DHT22;30894;51.740;19.498;2022-09-28T17:28:35;10.70;99.90
45137;DHT22;30894;51.740;19.498;2022-09-28T17:31:05;10.70;99.90
45137;DHT22;30894;51.740;19.498;2022-09-28T17:33:32;10.80;99.90
45137;DHT22;30894;51.740;19.498;2022-09-28T17:36:02;10.70;99.90
45137;DHT22;30894;51.740;19.498;2022-09-28T17:38:30;10.80;99.90
45137;DHT22;30894;51.740;19.498;2022-09-28T17:40:57;10.70;99.90
45137;DHT22;30894;51.740;19.498;2022-09-28T17:43:23;10.60;99.90
45137;DHT22;30894;51.740;19.498;2022-09-28T17:45:49;10.60;99.90
45137;DHT22;30894;51.740;19.498;2022-09-28T17:48:17;10.60;99.90
45137;DHT22;30894;51.740;19.498;2022-09-28T17:50:46;10.50;99.90
45137;DHT22;30894;51.740;19.498;2022-09-28T17:53:13;10.50;99.90
45137;DHT22;30894;51.740;19.498;2022-09-28T17:55:40;10.40;99.90
45137;DHT22;30894;51.740;19.498;2022-09-28T17:58:21;10.40;99.90
45137;DHT22;30894;51.740;19.498;2022-09-28T18:00:49;10.40;99.90
45137;DHT22;30894;51.740;19.498;2022-09-28T18:03:23;10.40;99.90
45137;DHT22;30894;51.740;19.498;2022-09-28T18:08:29;10.30;99.90
45137;DHT22;30894;51.740;19.498;2022-09-28T18:10:56;10.40;99.90
45137;DHT22;30894;51.740;19.498;2022-09-28T18:13:23;10.40;99.90
45137;DHT22;30894;51.740;19.498;2022-09-28T18:15:54;10.40;99.90
45137;DHT22;30894;51.740;19.498;2022-09-28T18:18:24;10.40;99.90
45137;DHT22;30894;51.740;19.498;2022-09-28T18:20:53;10.40;99.90
45137;DHT22;30894;51.740;19.498;2022-09-28T18:23:19;10.40;99.90
45137;DHT22;30894;51.740;19.498;2022-09-28T18:25:46;10.40;99.90
45137;DHT22;30894;51.740;19.498;2022-09-28T18:28:12;10.40;99.90
45137;DHT22;30894;51.740;19.498;2022-09-28T18:30:41;10.30;99.90
45137;DHT22;30894;51.740;19.498;2022-09-28T18:33:11;10.30;99.90
45137;DHT22;30894;51.740;19.498;2022-09-28T18:35:39;10.10;99.90
45137;DHT22;30894;51.740;19.498;2022-09-28T18:38:06;10.00;99.90
45137;DHT22;30894;51.740;19.498;2022-09-28T18:40:33;9.90;99.90
45137;DHT22;30894;51.740;19.498;2022-09-28T18:43:00;9.80;99.90
45137;DHT22;30894;51.740;19.498;2022-09-28T18:45:28;9.70;99.90
45137;DHT22;30894;51.740;19.498;2022-09-28T18:47:54;9.60;99.90
45137;DHT22;30894;51.740;19.498;2022-09-28T18:50:22;9.60;99.90
45137;DHT22;30894;51.740;19.498;2022-09-28T18:52:48;9.50;99.90
45137;DHT22;30894;51.740;19.498;2022-09-28T18:55:14;9.50;99.90
45137;DHT22;30894;51.740;19.498;2022-09-28T18:57:41;9.50;99.90